Time;durP1;ratioP1;P1;durP2;ratioP2;P2;SDS_P1;SDS_P2;PMS_P1;PMS_P2;Temp;Humidity;BMP_temperature;BMP_pressure;BME280_temperature;BME280_humidity;BME280_pressure;Samples;Min_cycle;Max_cycle;Signal;HPM_P1;HPM_P2
2022/10/17 00:00:47;;;;;;;9.20;6.10;;;;;;;-148.88;100.00;75907.22;4976572;28;20019;-84
2022/10/17 00:03:12;;;;;;;6.78;6.10;;;;;;;-148.88;100.00;75903.16;4977064;28;20323;-85
2022/10/17 00:05:39;;;;;;;7.30;5.60;;;;;;;-148.88;100.00;75899.09;4984051;28;20073;-86
2022/10/17 00:08:05;;;;;;;8.70;5.97;;;;;;;-148.88;100.00;75899.09;4985384;28;20022;-85
2022/10/17 00:10:30;;;;;;;8.07;6.18;;;;;;;-148.88;100.00;75903.16;4984618;28;20529;-85
2022/10/17 00:12:56;;;;;;;7.10;6.00;;;;;;;-148.88;100.00;75907.22;4984365;28;20026;-85
2022/10/17 00:15:22;;;;;;;13.35;6.22;;;;;;;-148.88;100.00;75905.19;4984349;28;20027;-85
2022/10/17 00:17:47;;;;;;;8.30;6.50;;;;;;;-148.88;100.00;75907.22;4984042;28;20023;-85
2022/10/17 00:20:13;;;;;;;8.20;6.38;;;;;;;-148.88;100.00;75903.16;4984012;28;20478;-86
2022/10/17 00:22:38;;;;;;;6.35;5.65;;;;;;;-148.88;100.00;75899.09;4983039;28;20038;-85
2022/10/17 00:25:04;;;;;;;10.05;6.70;;;;;;;-148.88;100.00;75907.22;4983457;28;20023;-86
2022/10/17 00:27:33;;;;;;;8.18;6.38;;;;;;;-148.88;100.00;75903.16;4983762;28;20018;-85
2022/10/17 00:29:58;;;;;;;7.00;6.30;;;;;;;-148.88;100.00;75903.16;4982674;28;20034;-85
2022/10/17 00:32:23;;;;;;;6.88;6.18;;;;;;;-148.88;100.00;75901.13;4982467;28;20022;-85
2022/10/17 00:34:48;;;;;;;8.23;6.32;;;;;;;-148.88;100.00;75903.16;4982040;28;20385;-85
2022/10/17 00:37:14;;;;;;;9.02;5.75;;;;;;;-148.88;100.00;75899.09;4976204;28;20070;-84
2022/10/17 00:39:39;;;;;;;10.43;6.57;;;;;;;-148.88;100.00;75890.97;4975740;28;20019;-83
2022/10/17 00:42:05;;;;;;;9.60;6.28;;;;;;;-148.88;100.00;75886.91;4975312;28;20023;-84
2022/10/17 00:44:30;;;;;;;7.82;5.63;;;;;;;-148.88;100.00;75882.84;4978921;28;20037;-85
2022/10/17 00:46:59;;;;;;;8.15;6.03;;;;;;;-148.88;100.00;75870.66;4981766;28;20053;-85
2022/10/17 00:49:29;;;;;;;6.97;6.18;;;;;;;-148.88;100.00;75862.53;4981761;28;20046;-85
2022/10/17 00:51:59;;;;;;;9.25;6.05;;;;;;;-148.88;100.00;75854.41;4982121;28;20373;-86
2022/10/17 00:54:30;;;;;;;7.25;6.43;;;;;;;-148.88;100.00;75842.22;4982157;28;20058;-85
2022/10/17 00:56:56;;;;;;;8.65;7.25;;;;;;;-148.88;100.00;75844.25;4981578;28;20023;-85
2022/10/17 00:59:22;;;;;;;11.88;6.70;;;;;;;-148.88;100.00;75850.34;4981608;28;20030;-85
2022/10/17 01:01:55;;;;;;;10.80;7.30;;;;;;;-148.88;100.00;75836.13;4982198;28;20015;-86
2022/10/17 01:04:21;;;;;;;12.10;7.60;;;;;;;-148.88;100.00;75834.09;4981824;28;20030;-85
2022/10/17 01:06:47;;;;;;;11.50;7.57;;;;;;;-148.88;100.00;75832.06;4981414;28;20374;-85
2022/10/17 01:09:12;;;;;;;9.82;7.40;;;;;;;-148.88;100.00;75832.06;4983451;28;20030;-86
2022/10/17 01:11:48;;;;;;;10.43;7.07;;;;;;;-148.88;100.00;75830.03;4980766;28;20032;-83
2022/10/17 01:14:30;;;;;;;8.90;7.05;;;;;;;-148.88;100.00;75825.97;4976502;28;20113;-84
2022/10/17 01:17:14;;;;;;;8.68;6.80;;;;;;;-148.88;100.00;75830.03;4977271;28;20027;-84
2022/10/17 01:19:51;;;;;;;8.35;6.50;;;;;;;-148.88;100.00;75832.06;4977018;28;20074;-84
2022/10/17 01:22:44;;;;;;;8.40;6.78;;;;;;;-148.88;100.00;75834.09;4976876;28;20035;-84
2022/10/17 01:25:44;;;;;;;11.07;7.30;;;;;;;-148.88;100.00;75832.06;4979484;28;20034;-84
2022/10/17 01:28:33;;;;;;;9.02;7.10;;;;;;;-148.88;100.00;75832.06;4981792;28;20409;-85
2022/10/17 01:31:11;;;;;;;9.68;7.35;;;;;;;-148.88;100.00;75836.13;4979256;28;20509;-85
2022/10/17 01:33:51;;;;;;;8.23;7.13;;;;;;;-148.88;100.00;75830.03;4983049;28;20046;-85
2022/10/17 01:36:47;;;;;;;10.32;6.72;;;;;;;-148.88;100.00;75819.88;4976780;28;20031;-85
2022/10/17 01:39:32;;;;;;;9.52;6.60;;;;;;;-148.88;100.00;75836.13;4976597;28;20512;-86
2022/10/17 01:42:22;;;;;;;9.40;7.22;;;;;;;-148.88;100.00;75838.16;4991288;28;20378;-85
2022/10/17 01:45:11;;;;;;;8.25;6.97;;;;;;;-148.88;100.00;75832.06;4975653;28;20022;-85
2022/10/17 01:47:37;;;;;;;9.30;6.75;;;;;;;-148.88;100.00;75823.94;4974079;28;20481;-85
2022/10/17 01:50:13;;;;;;;9.50;7.00;;;;;;;-148.88;100.00;75823.94;4976714;28;20030;-85
2022/10/17 01:52:52;;;;;;;10.05;7.40;;;;;;;-148.88;100.00;75823.94;4975124;28;20034;-85
2022/10/17 01:55:23;;;;;;;8.63;7.30;;;;;;;-148.88;100.00;75821.91;4976148;28;20113;-84
2022/10/17 01:57:51;;;;;;;11.77;7.60;;;;;;;-148.88;100.00;75811.75;4975300;28;20033;-84
2022/10/17 02:00:21;;;;;;;9.57;7.68;;;;;;;-148.88;100.00;75803.63;4975644;28;20023;-84
2022/10/17 02:02:48;;;;;;;9.75;7.97;;;;;;;-148.88;100.00;75805.66;4976489;28;20034;-85
2022/10/17 02:05:16;;;;;;;11.88;8.15;;;;;;;-148.88;100.00;75797.53;4975079;28;20050;-84
2022/10/17 02:07:41;;;;;;;10.25;7.80;;;;;;;-148.88;100.00;75793.47;4976283;28;20105;-84
2022/10/17 02:10:17;;;;;;;11.15;7.32;;;;;;;-148.88;100.00;75793.47;4975149;28;20061;-84
2022/10/17 02:12:58;;;;;;;11.63;7.93;;;;;;;-148.88;100.00;75797.53;4976423;28;20027;-84
2022/10/17 02:15:44;;;;;;;12.52;8.05;;;;;;;-148.88;100.00;75793.47;4976568;28;20106;-84
2022/10/17 02:18:28;;;;;;;9.50;7.25;;;;;;;-148.88;100.00;75785.34;4974771;28;20122;-84
2022/10/17 02:21:01;;;;;;;10.13;7.45;;;;;;;-148.88;100.00;75789.41;4975176;28;20126;-84
2022/10/17 02:23:42;;;;;;;9.98;7.80;;;;;;;-148.88;100.00;75785.34;4975575;28;20023;-85
2022/10/17 02:26:33;;;;;;;9.38;7.85;;;;;;;-148.88;100.00;75785.34;4977687;28;20109;-84
2022/10/17 02:29:13;;;;;;;10.70;7.63;;;;;;;-148.88;100.00;75789.41;4976074;28;20409;-83
2022/10/17 02:31:53;;;;;;;12.00;7.50;;;;;;;-148.88;100.00;75797.53;4975901;28;20030;-84
2022/10/17 02:34:28;;;;;;;10.77;7.63;;;;;;;-148.88;100.00;75791.44;4974170;28;20109;-85
2022/10/17 02:36:58;;;;;;;10.68;7.40;;;;;;;-148.88;100.00;75801.59;4974387;28;20034;-84
2022/10/17 02:39:26;;;;;;;11.48;8.02;;;;;;;-148.88;100.00;75803.63;4974419;28;20031;-84
2022/10/17 02:41:54;;;;;;;12.80;9.07;;;;;;;-148.88;100.00;75801.59;4974547;28;20029;-83
2022/10/17 02:44:20;;;;;;;13.85;8.55;;;;;;;-148.88;100.00;75807.69;4974363;28;20436;-84
2022/10/17 02:46:54;;;;;;;10.60;8.25;;;;;;;-148.88;100.00;75805.66;4974331;28;20389;-84
2022/10/17 02:49:28;;;;;;;11.15;8.52;;;;;;;-148.88;100.00;75805.66;4974803;28;20045;-84
2022/10/17 02:52:07;;;;;;;12.27;8.55;;;;;;;-148.88;100.00;75809.72;4974453;28;20033;-84
2022/10/17 02:54:53;;;;;;;12.32;8.45;;;;;;;-148.88;100.00;75799.56;4977925;28;20030;-84
2022/10/17 02:57:40;;;;;;;10.70;8.32;;;;;;;-148.88;100.00;75795.50;4979285;28;20161;-84
2022/10/17 03:00:12;;;;;;;12.05;7.97;;;;;;;-148.88;100.00;75795.50;4979143;28;20031;-85
2022/10/17 03:02:43;;;;;;;10.27;8.00;;;;;;;-148.88;100.00;75799.56;4978253;28;20067;-84
2022/10/17 03:05:11;;;;;;;12.57;8.38;;;;;;;-148.88;100.00;75795.50;4978211;28;20500;-83
2022/10/17 03:07:36;;;;;;;11.52;8.43;;;;;;;-148.88;100.00;75801.59;4979069;28;20027;-84
2022/10/17 03:10:03;;;;;;;12.18;8.70;;;;;;;-148.88;100.00;75805.66;4977599;28;20031;-83
2022/10/17 03:12:28;;;;;;;13.63;8.80;;;;;;;-148.88;100.00;75801.59;4978504;28;20027;-83
2022/10/17 03:14:53;;;;;;;11.95;8.85;;;;;;;-148.88;100.00;75805.66;4977613;28;20019;-84
2022/10/17 03:17:19;;;;;;;11.80;9.15;;;;;;;-148.88;100.00;75807.69;4978622;28;20077;-84
2022/10/17 03:19:44;;;;;;;11.05;9.27;;;;;;;-148.88;100.00;75813.78;4977480;28;20367;-83
2022/10/17 03:22:09;;;;;;;14.07;8.88;;;;;;;-148.88;100.00;75817.84;4977653;28;20037;-83
2022/10/17 03:24:34;;;;;;;12.15;9.10;;;;;;;-148.88;100.00;75811.75;4977877;28;20057;-84
2022/10/17 03:27:00;;;;;;;11.32;9.40;;;;;;;-148.88;100.00;75817.84;4977386;28;20022;-84
2022/10/17 03:29:25;;;;;;;11.88;9.80;;;;;;;-148.88;100.00;75817.84;4977397;28;20027;-83
2022/10/17 03:31:50;;;;;;;11.82;9.55;;;;;;;-148.88;100.00;75825.97;4980113;28;20066;-85
2022/10/17 03:34:17;;;;;;;13.05;9.48;;;;;;;-148.88;100.00;75821.91;4978759;28;20061;-84
2022/10/17 03:36:43;;;;;;;12.73;9.38;;;;;;;-148.88;100.00;75819.88;4978901;28;20031;-83
2022/10/17 03:39:09;;;;;;;13.13;10.05;;;;;;;-148.88;100.00;75817.84;4980646;28;20106;-83
2022/10/17 03:41:34;;;;;;;11.15;9.27;;;;;;;-148.88;100.00;75828.00;4983651;28;20025;-85
2022/10/17 03:44:00;;;;;;;11.52;8.68;;;;;;;-148.88;100.00;75836.13;4982393;28;20062;-85
2022/10/17 03:46:25;;;;;;;11.68;9.50;;;;;;;-148.88;100.00;75836.13;4981835;28;20026;-85
2022/10/17 03:48:51;;;;;;;11.88;8.57;;;;;;;-148.88;100.00;75834.09;4982211;28;20031;-85
2022/10/17 03:51:16;;;;;;;10.50;8.45;;;;;;;-148.88;100.00;75830.03;4981348;28;20027;-84
2022/10/17 03:53:42;;;;;;;11.68;8.68;;;;;;;-148.88;100.00;75834.09;4982258;28;20034;-85
2022/10/17 03:56:15;;;;;;;11.40;8.93;;;;;;;-148.88;100.00;75836.13;4983473;28;20033;-85
2022/10/17 03:58:41;;;;;;;11.27;9.07;;;;;;;-148.88;100.00;75830.03;4982906;28;20045;-85
2022/10/17 04:01:08;;;;;;;10.82;8.38;;;;;;;-148.88;100.00;75834.09;4983443;28;20073;-85
2022/10/17 04:03:34;;;;;;;12.98;8.60;;;;;;;-148.88;100.00;75844.25;4982579;28;20401;-84
2022/10/17 04:06:00;;;;;;;12.75;9.48;;;;;;;-148.88;100.00;75852.38;4983121;28;20083;-85
2022/10/17 04:08:26;;;;;;;11.43;9.25;;;;;;;-148.88;100.00;75848.31;4981942;28;20370;-85
2022/10/17 04:10:52;;;;;;;14.50;9.77;;;;;;;-148.88;100.00;75842.22;4982132;28;20081;-85
2022/10/17 04:13:17;;;;;;;11.48;9.50;;;;;;;-148.88;100.00;75846.28;4978113;28;20031;-85
2022/10/17 04:15:53;;;;;;;10.93;9.05;;;;;;;-148.88;100.00;75862.53;4977891;28;20030;-86
2022/10/17 04:18:18;;;;;;;11.95;8.82;;;;;;;-148.88;100.00;75854.41;4980081;28;20109;-84
2022/10/17 04:20:44;;;;;;;12.15;8.93;;;;;;;-148.88;100.00;75858.47;4979439;28;20065;-87
2022/10/17 04:23:09;;;;;;;15.82;9.20;;;;;;;-148.88;100.00;75858.47;4979231;28;20038;-85
2022/10/17 04:25:35;;;;;;;14.98;9.07;;;;;;;-148.88;100.00;75854.41;4976836;28;20031;-86
2022/10/17 04:28:00;;;;;;;11.55;9.13;;;;;;;-148.88;100.00;75854.41;4979793;28;20191;-86
2022/10/17 04:30:26;;;;;;;11.23;9.30;;;;;;;-148.88;100.00;75850.34;4980801;28;20513;-86
2022/10/17 04:32:51;;;;;;;12.75;8.32;;;;;;;-148.88;100.00;75850.34;4977413;28;20031;-85
2022/10/17 04:35:16;;;;;;;11.65;8.98;;;;;;;-148.88;100.00;75854.41;4980653;28;20031;-86
2022/10/17 04:37:42;;;;;;;12.02;9.13;;;;;;;-148.88;100.00;75854.41;4979663;28;20031;-86
2022/10/17 04:40:08;;;;;;;9.82;8.10;;;;;;;-148.88;100.00;75860.50;4979711;28;20086;-85
2022/10/17 04:42:33;;;;;;;11.85;9.30;;;;;;;-148.88;100.00;75864.56;4982162;28;20113;-86
2022/10/17 04:44:58;;;;;;;16.00;9.60;;;;;;;-148.88;100.00;75854.41;4979252;28;20065;-86
2022/10/17 04:47:24;;;;;;;13.75;8.70;;;;;;;-148.88;100.00;75864.56;4979963;28;20031;-85
2022/10/17 04:49:49;;;;;;;15.65;10.23;;;;;;;-148.88;100.00;75864.56;4977655;28;20101;-85
2022/10/17 04:52:15;;;;;;;13.30;10.20;;;;;;;-148.88;100.00;75874.72;4982168;28;20158;-85
2022/10/17 04:54:40;;;;;;;9.73;8.55;;;;;;;-148.88;100.00;75870.66;4981055;28;20027;-85
2022/10/17 04:57:06;;;;;;;10.52;9.32;;;;;;;-148.88;100.00;75874.72;4982790;28;20051;-85
2022/10/17 04:59:31;;;;;;;13.68;10.65;;;;;;;-148.88;100.00;75866.59;4981752;28;20046;-83
2022/10/17 05:01:56;;;;;;;10.52;9.43;;;;;;;-148.88;100.00;75862.53;4981343;28;20026;-84
2022/10/17 05:04:22;;;;;;;9.82;8.80;;;;;;;-148.88;100.00;75862.53;4981111;28;20126;-84
2022/10/17 05:06:47;;;;;;;11.68;9.48;;;;;;;-148.88;100.00;75862.53;4980528;28;20029;-85
2022/10/17 05:09:12;;;;;;;11.02;8.52;;;;;;;-148.88;100.00;75862.53;4980827;28;20054;-85
2022/10/17 05:11:38;;;;;;;12.57;10.70;;;;;;;-148.88;100.00;75856.44;4980678;28;20080;-84
2022/10/17 05:14:03;;;;;;;14.50;9.60;;;;;;;-148.88;100.00;75868.63;4982022;28;20031;-82
2022/10/17 05:16:29;;;;;;;14.32;9.68;;;;;;;-148.88;100.00;75870.66;4977366;28;20121;-84
2022/10/17 05:18:56;;;;;;;11.43;9.02;;;;;;;-148.88;100.00;75868.63;4980377;28;20117;-84
2022/10/17 05:21:23;;;;;;;13.73;9.15;;;;;;;-148.88;100.00;75884.88;4979273;28;20022;-84
2022/10/17 05:23:49;;;;;;;12.20;9.38;;;;;;;-148.88;100.00;75886.91;4979466;28;20023;-84
2022/10/17 05:26:15;;;;;;;13.95;9.13;;;;;;;-148.88;100.00;75882.84;4978609;28;20471;-84
2022/10/17 05:28:40;;;;;;;11.40;9.38;;;;;;;-148.88;100.00;75886.91;4978028;28;20060;-84
2022/10/17 05:31:08;;;;;;;11.75;9.00;;;;;;;-148.88;100.00;75876.75;4978688;28;20022;-84
2022/10/17 05:33:34;;;;;;;9.90;8.45;;;;;;;-148.88;100.00;75884.88;4978234;28;20022;-84
2022/10/17 05:36:00;;;;;;;11.07;9.10;;;;;;;-148.88;100.00;75888.94;4976127;28;20031;-84
2022/10/17 05:38:26;;;;;;;10.73;9.00;;;;;;;-148.88;100.00;75890.97;4975394;28;20019;-83
2022/10/17 05:40:57;;;;;;;10.93;8.73;;;;;;;-148.88;100.00;75895.03;4976140;28;20026;-82
2022/10/17 05:43:22;;;;;;;11.50;8.75;;;;;;;-148.88;100.00;75895.03;4975323;28;20031;-84
2022/10/17 05:45:47;;;;;;;11.35;8.77;;;;;;;-148.88;100.00;75886.91;4976336;28;20110;-84
2022/10/17 05:48:13;;;;;;;13.60;9.45;;;;;;;-148.88;100.00;75890.97;4975416;28;20126;-83
2022/10/17 05:50:38;;;;;;;11.88;9.10;;;;;;;-148.88;100.00;75886.91;4974620;28;20474;-83
2022/10/17 05:53:04;;;;;;;12.85;9.57;;;;;;;-148.88;100.00;75895.03;4974347;28;20023;-83
2022/10/17 05:55:29;;;;;;;11.60;9.57;;;;;;;-148.88;100.00;75888.94;4974632;28;20082;-82
2022/10/17 05:57:54;;;;;;;12.57;9.32;;;;;;;-148.88;100.00;75884.88;4975004;28;20050;-82
2022/10/17 06:00:20;;;;;;;11.95;9.63;;;;;;;-148.88;100.00;75890.97;4974396;28;20019;-83
2022/10/17 06:02:46;;;;;;;10.93;9.30;;;;;;;-148.88;100.00;75890.97;4973902;28;20023;-83
2022/10/17 06:05:12;;;;;;;11.77;9.02;;;;;;;-148.88;100.00;75886.91;4974163;28;20058;-84
2022/10/17 06:07:38;;;;;;;11.20;9.68;;;;;;;-148.88;100.00;75882.84;4973770;28;20027;-83
2022/10/17 06:10:04;;;;;;;12.63;9.30;;;;;;;-148.88;100.00;75880.81;4973794;28;20045;-83
2022/10/17 06:12:29;;;;;;;11.55;9.18;;;;;;;-148.88;100.00;75882.84;4974345;28;20118;-82
2022/10/17 06:14:54;;;;;;;11.38;9.07;;;;;;;-148.88;100.00;75890.97;4975821;28;20425;-81
2022/10/17 06:17:20;;;;;;;10.82;9.00;;;;;;;-148.88;100.00;75890.97;4975111;28;20030;-83
2022/10/17 06:19:45;;;;;;;12.48;8.70;;;;;;;-148.88;100.00;75897.06;4973687;28;20094;-82
2022/10/17 06:22:11;;;;;;;13.45;9.45;;;;;;;-148.88;100.00;75895.03;4973853;28;20026;-84
2022/10/17 06:24:36;;;;;;;10.45;9.35;;;;;;;-148.88;100.00;75899.09;4973898;28;20423;-83
2022/10/17 06:27:01;;;;;;;14.45;10.38;;;;;;;-148.88;100.00;75899.09;4974091;28;20027;-83
2022/10/17 06:29:27;;;;;;;14.50;10.82;;;;;;;-148.88;100.00;75895.03;4978658;28;20034;-85
2022/10/17 06:31:52;;;;;;;12.52;10.15;;;;;;;-148.88;100.00;75890.97;4979585;28;20046;-83
2022/10/17 06:34:18;;;;;;;13.75;10.45;;;;;;;-148.88;100.00;75882.84;4979433;28;20209;-83
2022/10/17 06:36:43;;;;;;;14.60;11.82;;;;;;;-148.88;100.00;75878.78;4978048;28;20062;-83
2022/10/17 06:39:09;;;;;;;15.25;10.95;;;;;;;-148.88;100.00;75874.72;4977479;28;20022;-81
2022/10/17 06:41:36;;;;;;;13.02;10.07;;;;;;;-148.88;100.00;75866.59;4977308;28;20021;-82
2022/10/17 06:44:08;;;;;;;11.98;9.88;;;;;;;-148.88;100.00;75872.69;4978111;28;20481;-83
2022/10/17 06:46:33;;;;;;;12.35;9.73;;;;;;;-148.88;100.00;75870.66;4977777;28;20077;-83
2022/10/17 06:48:59;;;;;;;14.10;9.63;;;;;;;-148.88;100.00;75870.66;4977430;28;20070;-83
2022/10/17 06:51:24;;;;;;;14.13;9.70;;;;;;;-148.88;100.00;75866.59;4977777;28;20034;-83
2022/10/17 06:53:49;;;;;;;12.80;9.52;;;;;;;-148.88;100.00;75858.47;4977421;28;20027;-84
2022/10/17 06:56:15;;;;;;;15.48;10.43;;;;;;;-148.88;100.00;75858.47;4979437;28;20111;-84
2022/10/17 06:58:40;;;;;;;13.48;9.13;;;;;;;-148.88;100.00;75852.38;4977400;28;20130;-83
2022/10/17 07:01:11;;;;;;;13.40;9.90;;;;;;;-148.88;100.00;75852.38;4977440;28;20027;-83
2022/10/17 07:03:37;;;;;;;13.80;10.30;;;;;;;-148.88;100.00;75856.44;4977307;28;20026;-83
2022/10/17 07:06:03;;;;;;;15.27;9.80;;;;;;;-148.88;100.00;75854.41;4977226;28;20027;-83
2022/10/17 07:08:28;;;;;;;13.20;9.38;;;;;;;-148.88;100.00;75850.34;4977062;28;20458;-83
2022/10/17 07:10:54;;;;;;;14.95;9.88;;;;;;;-148.88;100.00;75852.38;4976988;28;20074;-84
2022/10/17 07:13:20;;;;;;;15.82;10.65;;;;;;;-148.88;100.00;75848.31;4977080;28;20026;-83
2022/10/17 07:15:46;;;;;;;14.27;10.55;;;;;;;-148.88;100.00;75854.41;4976562;28;20150;-82
2022/10/17 07:18:11;;;;;;;15.65;10.35;;;;;;;-148.88;100.00;75854.41;4976600;28;20077;-83
2022/10/17 07:20:37;;;;;;;14.57;9.80;;;;;;;-148.88;100.00;75844.25;4976850;28;20052;-83
2022/10/17 07:23:03;;;;;;;14.13;9.27;;;;;;;-148.88;100.00;75846.28;4976411;28;20041;-82
2022/10/17 07:25:28;;;;;;;12.63;9.45;;;;;;;-148.88;100.00;75844.25;4976789;28;20030;-83
2022/10/17 07:27:54;;;;;;;11.65;9.93;;;;;;;-148.88;100.00;75842.22;4977264;28;20022;-84
2022/10/17 07:30:20;;;;;;;13.23;9.85;;;;;;;-148.88;100.00;75838.16;4977008;28;20018;-83
2022/10/17 07:32:46;;;;;;;17.65;10.38;;;;;;;-148.88;100.00;75830.03;4976479;28;20508;-83
2022/10/17 07:35:11;;;;;;;16.88;11.23;;;;;;;-148.88;100.00;75821.91;4976699;28;20541;-84
2022/10/17 07:37:37;;;;;;;15.02;10.63;;;;;;;-148.88;100.00;75809.72;4976366;28;20030;-83
2022/10/17 07:40:05;;;;;;;16.58;12.00;;;;;;;-148.88;100.00;75801.59;4976005;28;20149;-82
2022/10/17 07:42:31;;;;;;;21.05;12.48;;;;;;;-148.88;100.00;75791.44;4977005;28;20047;-83
2022/10/17 07:44:57;;;;;;;19.05;12.00;;;;;;;-148.88;100.00;75773.16;4976741;28;20027;-83
2022/10/17 07:47:22;;;;;;;15.15;11.23;;;;;;;-148.88;100.00;75765.03;4976905;28;20029;-84
2022/10/17 07:49:47;;;;;;;16.85;11.57;;;;;;;-148.88;100.00;75752.84;4976373;28;20023;-83
2022/10/17 07:52:14;;;;;;;19.02;11.98;;;;;;;-148.88;100.00;75746.75;4975938;28;20035;-83
2022/10/17 07:54:39;;;;;;;14.48;11.05;;;;;;;-148.88;100.00;75740.66;4976187;28;20034;-83
2022/10/17 07:57:05;;;;;;;18.83;11.52;;;;;;;-148.88;100.00;75726.44;4977205;28;20027;-82
2022/10/17 07:59:32;;;;;;;19.02;11.10;;;;;;;-148.88;100.00;75724.41;4976322;28;20041;-83
2022/10/17 08:01:58;;;;;;;12.45;9.90;;;;;;;-148.88;100.00;75722.38;4976031;28;20023;-84
2022/10/17 08:04:24;;;;;;;13.07;9.43;;;;;;;-148.88;100.00;75716.28;4976920;28;20380;-82
2022/10/17 08:06:49;;;;;;;13.15;9.25;;;;;;;-148.88;100.00;75712.22;4977982;28;20022;-83
2022/10/17 08:09:15;;;;;;;12.63;9.23;;;;;;;-148.88;100.00;75708.16;4977333;28;20367;-84
2022/10/17 08:11:42;;;;;;;13.63;8.52;;;;;;;-148.88;100.00;75693.94;4977728;28;20026;-84
2022/10/17 08:14:08;;;;;;;13.27;8.65;;;;;;;-148.88;100.00;75677.69;4977052;28;20114;-84
2022/10/17 08:16:34;;;;;;;13.73;8.07;;;;;;;-148.88;100.00;75661.44;4977060;28;20152;-84
2022/10/17 08:18:59;;;;;;;10.60;8.00;;;;;;;-148.88;100.00;75655.34;4976836;28;20093;-84
2022/10/17 08:21:25;;;;;;;9.52;7.88;;;;;;;-148.88;100.00;75649.25;4976810;28;20167;-84
2022/10/17 08:23:50;;;;;;;9.63;7.70;;;;;;;-148.88;100.00;75635.03;4977176;28;20034;-84
2022/10/17 08:26:18;;;;;;;9.10;7.88;;;;;;;-148.88;100.00;75633.00;4975401;28;20392;-84
2022/10/17 08:28:44;;;;;;;10.25;7.00;;;;;;;-148.88;100.00;75618.78;4975464;28;20031;-84
2022/10/17 08:31:13;;;;;;;10.98;7.88;;;;;;;-148.88;100.00;75610.66;4975519;28;20030;-83
2022/10/17 08:33:39;;;;;;;15.70;7.43;;;;;;;-148.88;100.00;75590.34;4975900;28;20023;-84
2022/10/17 08:36:06;;;;;;;9.68;7.13;;;;;;;-148.88;100.00;75578.19;4977150;28;20023;-82
2022/10/17 08:38:33;;;;;;;13.32;7.47;;;;;;;-148.88;100.00;75561.94;4975753;28;20482;-83
2022/10/17 08:41:42;;;;;;;10.32;7.00;;;;;;;-148.88;100.00;75555.84;4975595;28;20170;-83
2022/10/17 08:44:23;;;;;;;9.48;6.43;;;;;;;-148.88;100.00;75537.56;4975578;28;20126;-83
2022/10/17 08:46:52;;;;;;;11.20;6.75;;;;;;;-148.88;100.00;75517.25;4976311;28;20023;-83
2022/10/17 08:49:51;;;;;;;8.77;6.43;;;;;;;-148.88;100.00;75490.84;4975491;28;20030;-82
2022/10/17 08:52:40;;;;;;;7.80;6.57;;;;;;;-148.88;100.00;75460.38;4973159;28;20035;-84
2022/10/17 08:55:27;;;;;;;9.15;5.88;;;;;;;-148.88;100.00;75444.13;4968960;28;20034;-83
2022/10/17 08:57:53;;;;;;;9.98;5.95;;;;;;;-148.88;100.00;75436.00;4975745;28;20019;-83
2022/10/17 09:00:20;;;;;;;9.93;5.60;;;;;;;-148.88;100.00;75423.81;4975447;28;20109;-84
2022/10/17 09:03:18;;;;;;;9.38;5.75;;;;;;;-148.88;100.00;75411.63;4975200;28;20025;-83
2022/10/17 09:05:46;;;;;;;10.73;6.15;;;;;;;-148.88;100.00;75411.63;4975359;28;20045;-83
2022/10/17 09:08:15;;;;;;;9.25;5.55;;;;;;;-148.88;100.00;75407.56;4976507;28;20554;-83
2022/10/17 09:10:52;;;;;;;8.30;5.28;;;;;;;-148.88;100.00;75411.63;4989781;28;20026;-84
2022/10/17 09:13:39;;;;;;;7.13;5.40;;;;;;;-148.88;100.00;75401.47;4992578;28;20057;-84
2022/10/17 09:16:32;;;;;;;6.57;4.93;;;;;;;-148.88;100.00;75399.44;4991889;28;20042;-83
2022/10/17 09:19:03;;;;;;;6.32;4.60;;;;;;;-148.88;100.00;75389.28;4991912;28;20378;-84
2022/10/17 09:21:43;;;;;;;9.50;5.05;;;;;;;-148.88;100.00;75366.94;4989732;28;20038;-84
2022/10/17 09:24:32;;;;;;;10.32;5.32;;;;;;;-148.88;100.00;75352.72;4983168;28;20493;-85
2022/10/17 09:27:01;;;;;;;9.60;4.80;;;;;;;-148.88;100.00;75334.44;4981351;28;20037;-85
2022/10/17 09:29:28;;;;;;;8.93;4.40;;;;;;;-148.88;100.00;75318.19;4981373;28;20478;-85
2022/10/17 09:32:03;;;;;;;6.38;4.40;;;;;;;-148.88;100.00;75314.13;4979915;28;20039;-84
2022/10/17 09:34:31;;;;;;;6.70;4.53;;;;;;;-148.88;100.00;75306.00;4980777;28;20029;-84
2022/10/17 09:37:01;;;;;;;7.45;4.60;;;;;;;-148.88;100.00;75293.81;4978194;28;20030;-84
2022/10/17 09:39:30;;;;;;;12.43;4.10;;;;;;;-148.88;100.00;75281.66;4992045;28;20015;-84
2022/10/17 09:41:58;;;;;;;8.50;3.95;;;;;;;-148.88;100.00;75277.59;4978815;28;20031;-84
2022/10/17 09:44:29;;;;;;;6.20;3.92;;;;;;;-148.88;100.00;75265.41;4980218;28;20504;-84
2022/10/17 09:47:20;;;;;;;8.07;4.20;;;;;;;-148.88;99.13;75253.22;4979706;28;20505;-83
2022/10/17 09:49:47;;;;;;;7.47;4.00;;;;;;;-148.88;98.35;75234.94;4980242;28;20026;-84
2022/10/17 09:52:26;;;;;;;9.00;4.13;;;;;;;-148.88;98.07;75220.72;4978770;28;20023;-84
2022/10/17 09:54:58;;;;;;;5.28;3.80;;;;;;;-148.88;97.93;75192.28;4979115;28;20026;-84
2022/10/17 09:57:24;;;;;;;6.05;3.80;;;;;;;-148.88;96.67;75167.91;4979002;28;20709;-85
2022/10/17 09:59:57;;;;;;;7.63;4.40;;;;;;;-148.88;96.05;75151.66;4979612;28;20031;-84
2022/10/17 10:02:23;;;;;;;;;;;;;;;-148.88;95.67;75131.34;4976929;28;20104;-85
2022/10/17 10:04:56;;;;;;;7.00;3.28;;;;;;;-148.88;93.21;75113.06;4977114;28;19910;-84
2022/10/17 10:07:22;;;;;;;5.25;3.20;;;;;;;-148.88;93.94;75092.78;4980266;28;20027;-84
2022/10/17 10:09:49;;;;;;;6.10;3.55;;;;;;;-148.88;90.15;75062.31;4980175;28;20498;-85
2022/10/17 10:12:21;;;;;;;6.20;3.10;;;;;;;-148.88;87.82;75046.06;4979032;28;20201;-84
2022/10/17 10:14:47;;;;;;;6.93;3.67;;;;;;;-148.88;88.04;75037.94;4973615;28;20027;-82
2022/10/17 10:17:40;;;;;;;5.97;3.30;;;;;;;-148.88;86.56;75025.75;4973553;28;20398;-82
2022/10/17 10:20:29;;;;;;;5.95;3.15;;;;;;;-148.88;82.14;75009.50;4974279;28;20113;-82
2022/10/17 10:23:07;;;;;;;7.65;3.03;;;;;;;-148.88;83.55;74989.19;5002440;23;20070;-87
2022/10/17 10:25:34;;;;;;;11.20;3.28;;;;;;;-148.88;80.15;74977.00;4954502;29;20023;-87
2022/10/17 10:28:00;;;;;;;6.28;3.22;;;;;;;-148.88;80.95;74972.94;4956167;28;20490;-85
2022/10/17 10:30:30;;;;;;;10.80;3.35;;;;;;;-148.88;80.79;74956.69;4954469;28;20166;-85
2022/10/17 10:32:59;;;;;;;5.30;2.97;;;;;;;-148.88;79.86;74960.75;4949780;28;20047;-86
2022/10/17 10:35:34;;;;;;;7.55;2.75;;;;;;;-148.88;79.49;74932.34;4934873;29;20059;-86
2022/10/17 10:38:02;;;;;;;5.40;3.13;;;;;;;-148.88;78.99;74895.78;4950447;28;20119;-88
2022/10/17 10:40:43;;;;;;;7.25;3.15;;;;;;;-148.88;78.70;74879.53;4935572;29;20032;-88
2022/10/17 10:43:22;;;;;;;6.38;3.67;;;;;;;-148.88;78.44;74879.53;4935881;29;20028;-87
2022/10/17 10:45:48;;;;;;;6.95;3.17;;;;;;;-148.88;78.09;74867.34;4950808;28;20028;-88
2022/10/17 10:48:23;;;;;;;6.97;3.38;;;;;;;-148.88;78.06;74895.78;4937072;29;20111;-83
2022/10/17 10:50:52;;;;;;;6.82;3.30;;;;;;;-148.88;77.33;74924.22;4934091;29;20485;-83
2022/10/17 10:53:24;;;;;;;9.40;3.92;;;;;;;-148.88;79.17;74940.47;4934139;29;20032;-82
2022/10/17 10:56:05;;;;;;;7.35;3.50;;;;;;;-148.88;79.78;74948.56;4936347;29;20023;-82
2022/10/17 10:58:48;;;;;;;6.60;3.13;;;;;;;-148.88;79.67;74956.69;4934542;29;20027;-83
2022/10/17 11:01:36;;;;;;;11.10;3.40;;;;;;;-148.88;79.96;74985.13;4936306;29;20023;-82
2022/10/17 11:04:32;;;;;;;8.73;3.42;;;;;;;-148.88;80.60;74970.91;4950727;28;20032;-82
2022/10/17 11:07:04;;;;;;;5.07;3.25;;;;;;;-148.88;80.95;74974.97;4936348;29;20047;-82
2022/10/17 11:09:50;;;;;;;6.00;3.78;;;;;;;-148.88;81.07;74989.19;4936028;29;20023;-83
2022/10/17 11:12:23;;;;;;;7.55;3.17;;;;;;;-148.88;81.88;74993.25;4934396;29;20059;-83
2022/10/17 11:14:52;;;;;;;7.80;3.50;;;;;;;-148.88;82.84;75003.41;4938778;29;20086;-82
2022/10/17 11:17:29;;;;;;;6.13;3.40;;;;;;;-148.88;81.25;75033.88;4938217;29;20027;-82